To NAV CANADA Home Page Login to a new session Search on AWWS site Disclaimer Vers la page française équivalente Tips FAQ What's new on the site To the Forecasts and Observations / NOTAM section To "File a Flight Plan" website Publications and other links Update of the User's profile FIC Telephone Numbers My Weather Data Folder Route Weather Data Regional Weather Data Local Weather Data To the Forecasts and Observations / NOTAM section
Request Generated 10/21/2018 at 05:51:19 UTC . Weather information available at that time is displayed.

METAR/TAF

PETERBOROUGH/ON    (show WxCam)

METAR CYPQ 210500Z AUTO 33014G20KT 9SM BKN046 BKN150 BKN170 03/M03 A2982 RMK SLP105=
METAR CYPQ 210400Z AUTO 32010G16KT 9SM SCT050 03/M02 A2980 RMK SLP098=
METAR CYPQ 210300Z AUTO 35014G21KT 9SM FEW060 04/M02 A2977 RMK SLP089=

*** REMARK        : Forecast period has ended; this was the last TAF issued
*** REMARQUE : La période de prévision est échue; ceci était le dernier TAF qui a été émis
TAF CYPQ 201938Z 2020/2102 29015G25KT P6SM FEW040
BECMG 2022/2024 32012G22KT
RMK FCST BASED ON AUTO OBS. NXT FCST WILL BE ISSUED AT 210945Z=
Your time UTC time
Weather data provided by Environment Canada and NAV CANADA